Time;durP1;ratioP1;P1;durP2;ratioP2;P2;SDS_P1;SDS_P2;PMS_P1;PMS_P2;Temp;Humidity;BMP_temperature;BMP_pressure;BME280_temperature;BME280_humidity;BME280_pressure;Samples;Min_cycle;Max_cycle;Signal;HPM_P1;HPM_P2
2023/08/01 00:00:50;;;;;;;4.17;3.87;;;16.90;99.90;;;;;;5035666;28;20402;-71
2023/08/01 00:03:15;;;;;;;4.87;4.37;;;16.90;99.90;;;;;;5035577;28;20422;-71
2023/08/01 00:05:45;;;;;;;4.20;3.70;;;16.80;99.90;;;;;;5032769;28;20281;-72
2023/08/01 00:08:14;;;;;;;4.53;3.30;;;16.90;99.90;;;;;;5015551;28;20345;-71
2023/08/01 00:10:40;;;;;;;4.27;3.97;;;16.80;99.90;;;;;;5014347;28;20423;-71
2023/08/01 00:13:07;;;;;;;3.57;3.37;;;16.80;99.90;;;;;;5015851;28;20457;-72
2023/08/01 00:15:33;;;;;;;6.03;3.50;;;16.80;99.90;;;;;;5014769;28;20407;-71
2023/08/01 00:17:59;;;;;;;3.33;3.03;;;16.80;99.90;;;;;;5014242;28;20510;-71
2023/08/01 00:20:25;;;;;;;2.20;2.00;;;16.80;99.90;;;;;;5030047;28;20445;-70
2023/08/01 00:22:50;;;;;;;2.13;2.00;;;16.70;99.90;;;;;;5034773;28;20406;-74
2023/08/01 00:25:17;;;;;;;2.00;1.90;;;16.70;99.90;;;;;;5032971;28;20175;-72
2023/08/01 00:27:43;;;;;;;7.60;2.10;;;16.70;99.90;;;;;;5032361;28;20293;-71
2023/08/01 00:30:09;;;;;;;1.47;1.37;;;16.60;99.90;;;;;;5035179;28;20493;-71
2023/08/01 00:32:36;;;;;;;2.20;2.00;;;16.60;99.90;;;;;;5034684;28;20633;-70
2023/08/01 00:35:02;;;;;;;1.80;1.70;;;16.60;99.90;;;;;;5033877;28;20808;-77
2023/08/01 00:37:28;;;;;;;6.03;1.80;;;16.60;99.90;;;;;;5034781;28;20434;-72
2023/08/01 00:39:54;;;;;;;1.77;1.50;;;16.60;99.90;;;;;;5033301;28;20912;-71
2023/08/01 00:42:19;;;;;;;2.30;2.10;;;16.60;99.90;;;;;;5034129;28;20179;-71
2023/08/01 00:44:47;;;;;;;2.00;1.90;;;16.60;99.90;;;;;;5034882;28;20559;-71
2023/08/01 00:47:13;;;;;;;1.57;1.47;;;16.60;99.90;;;;;;5033493;28;20524;-71
2023/08/01 00:49:39;;;;;;;2.30;1.50;;;16.50;99.90;;;;;;5034587;28;20437;-71
2023/08/01 00:52:06;;;;;;;1.60;1.50;;;16.50;99.90;;;;;;5034470;28;20266;-71
2023/08/01 00:54:36;;;;;;;3.93;1.67;;;16.50;99.90;;;;;;5033460;28;20468;-71
2023/08/01 00:57:06;;;;;;;2.00;1.47;;;16.50;99.90;;;;;;5017469;28;20454;-71
2023/08/01 00:59:32;;;;;;;4.50;1.60;;;16.50;99.90;;;;;;5013445;28;20510;-72
2023/08/01 01:01:59;;;;;;;1.50;1.40;;;16.50;99.90;;;;;;5012938;28;20510;-71
2023/08/01 01:04:26;;;;;;;2.50;1.80;;;16.50;99.90;;;;;;5015038;28;20911;-71
2023/08/01 01:06:59;;;;;;;2.10;1.80;;;16.60;99.90;;;;;;5013466;28;20952;-71
2023/08/01 01:09:29;;;;;;;1.53;1.43;;;16.50;99.90;;;;;;5014496;28;20993;-70
2023/08/01 01:11:55;;;;;;;1.60;1.50;;;16.50;99.90;;;;;;5012888;28;20546;-71
2023/08/01 01:14:20;;;;;;;1.90;1.80;;;16.50;99.90;;;;;;5014125;28;20415;-70
2023/08/01 01:16:46;;;;;;;5.30;1.70;;;16.50;99.90;;;;;;5012188;28;20200;-71
2023/08/01 01:19:11;;;;;;;1.77;1.67;;;16.50;99.90;;;;;;5014573;28;20176;-70
2023/08/01 01:21:42;;;;;;;1.70;1.60;;;16.50;99.90;;;;;;5019623;28;20180;-71
2023/08/01 01:24:10;;;;;;;2.40;2.20;;;16.50;99.90;;;;;;5034108;28;20179;-72
2023/08/01 01:26:37;;;;;;;1.83;1.73;;;16.50;99.90;;;;;;5032918;28;20876;-72
2023/08/01 01:29:05;;;;;;;10.43;2.20;;;16.50;99.90;;;;;;5034275;28;20441;-71
2023/08/01 01:31:32;;;;;;;3.03;2.77;;;16.50;99.90;;;;;;5033340;28;20405;-70
2023/08/01 01:33:59;;;;;;;3.60;3.30;;;16.50;99.90;;;;;;5033719;28;20398;-72
2023/08/01 01:36:24;;;;;;;3.80;3.50;;;16.50;99.90;;;;;;5032324;28;20926;-70
2023/08/01 01:38:50;;;;;;;5.30;4.70;;;16.50;99.90;;;;;;5032973;28;20414;-70
2023/08/01 01:41:16;;;;;;;3.93;3.63;;;16.60;99.90;;;;;;5033755;28;20164;-71
2023/08/01 01:43:41;;;;;;;8.00;3.87;;;16.60;99.90;;;;;;5033781;28;20180;-70
2023/08/01 01:46:07;;;;;;;4.50;4.00;;;16.60;99.90;;;;;;5031427;28;20171;-70
2023/08/01 01:48:33;;;;;;;5.10;4.70;;;16.70;99.90;;;;;;5031333;28;20194;-70
2023/08/01 01:50:58;;;;;;;6.20;4.67;;;16.70;99.90;;;;;;5013845;28;20592;-71
2023/08/01 01:53:24;;;;;;;6.07;5.47;;;16.70;99.90;;;;;;5013713;28;20183;-71
2023/08/01 01:55:50;;;;;;;7.03;5.57;;;16.70;99.90;;;;;;5012692;28;20180;-70
2023/08/01 01:58:16;;;;;;;6.50;5.30;;;16.70;99.90;;;;;;5012993;28;20271;-69
2023/08/01 02:00:41;;;;;;;6.20;5.60;;;16.70;99.90;;;;;;5014027;28;20242;-70
2023/08/01 02:03:10;;;;;;;5.27;4.77;;;16.70;99.90;;;;;;5012676;28;20180;-76
2023/08/01 02:05:36;;;;;;;6.00;5.40;;;16.70;99.90;;;;;;5031407;28;20183;-70
2023/08/01 02:08:02;;;;;;;11.30;5.80;;;16.70;99.90;;;;;;5033308;28;20468;-70
2023/08/01 02:10:28;;;;;;;10.27;6.10;;;16.70;99.90;;;;;;5033364;28;20452;-71
2023/08/01 02:12:54;;;;;;;8.37;5.47;;;16.70;99.90;;;;;;5033432;28;20423;-70
2023/08/01 02:15:19;;;;;;;5.60;5.10;;;16.70;99.90;;;;;;5031940;28;20926;-70
2023/08/01 02:17:45;;;;;;;5.47;4.93;;;16.70;99.90;;;;;;5032851;28;20551;-70
2023/08/01 02:20:11;;;;;;;9.90;5.10;;;16.70;99.90;;;;;;5033446;28;20171;-73
2023/08/01 02:22:37;;;;;;;10.77;5.70;;;16.70;99.90;;;;;;5032133;28;20187;-70
2023/08/01 02:25:03;;;;;;;6.53;5.83;;;16.70;99.90;;;;;;5032626;28;20464;-78
2023/08/01 02:27:28;;;;;;;7.80;6.00;;;16.70;99.90;;;;;;5033202;28;20203;-71
2023/08/01 02:29:54;;;;;;;6.57;5.73;;;16.60;99.90;;;;;;5033480;28;20404;-70
2023/08/01 02:32:20;;;;;;;6.37;5.80;;;16.70;99.90;;;;;;5031433;28;20549;-70
2023/08/01 02:34:45;;;;;;;8.10;5.97;;;16.60;99.90;;;;;;5032937;28;20203;-69
2023/08/01 02:37:11;;;;;;;5.50;5.00;;;16.60;99.90;;;;;;5032237;28;20270;-70
2023/08/01 02:39:37;;;;;;;6.00;5.40;;;16.60;99.90;;;;;;5032925;28;20172;-70
2023/08/01 02:42:03;;;;;;;6.17;5.33;;;16.70;99.90;;;;;;5032441;28;20197;-70
2023/08/01 02:44:29;;;;;;;6.93;6.23;;;16.70;99.90;;;;;;5032260;28;20187;-72
2023/08/01 02:46:54;;;;;;;6.53;4.83;;;16.70;99.90;;;;;;5032100;28;20218;-70
2023/08/01 02:49:20;;;;;;;7.73;6.93;;;16.70;99.90;;;;;;5032923;28;20414;-69
2023/08/01 02:51:46;;;;;;;5.53;5.00;;;16.70;99.90;;;;;;5032208;28;20172;-70
2023/08/01 02:54:11;;;;;;;5.90;5.30;;;16.70;99.90;;;;;;5019704;28;20176;-71
2023/08/01 02:56:41;;;;;;;5.93;5.33;;;16.70;99.90;;;;;;5012086;28;20179;-70
2023/08/01 02:59:10;;;;;;;6.40;4.80;;;16.70;99.90;;;;;;5015294;28;20211;-73
2023/08/01 03:01:38;;;;;;;6.13;4.80;;;16.70;99.90;;;;;;5032526;28;20434;-71
2023/08/01 03:04:06;;;;;;;5.63;5.10;;;16.70;99.90;;;;;;5032973;28;20413;-70
2023/08/01 03:06:34;;;;;;;9.20;4.87;;;16.70;99.90;;;;;;5031839;28;20453;-72
2023/08/01 03:09:00;;;;;;;5.07;4.60;;;16.60;99.90;;;;;;5032108;28;20394;-70
2023/08/01 03:11:26;;;;;;;5.93;5.07;;;16.70;99.90;;;;;;5032903;28;20402;-70
2023/08/01 03:13:52;;;;;;;7.70;5.37;;;16.70;99.90;;;;;;5032089;28;20453;-70
2023/08/01 03:16:18;;;;;;;7.17;6.07;;;16.60;99.90;;;;;;5034619;28;20251;-72
2023/08/01 03:18:44;;;;;;;5.90;5.33;;;16.70;99.90;;;;;;5035995;28;20199;-71
2023/08/01 03:21:10;;;;;;;7.07;5.20;;;16.70;99.90;;;;;;5035232;28;20406;-70
2023/08/01 03:23:36;;;;;;;6.57;5.20;;;16.70;99.90;;;;;;5036442;28;20217;-69
2023/08/01 03:26:02;;;;;;;6.33;4.80;;;16.70;99.90;;;;;;5033707;28;20510;-70
2023/08/01 03:28:28;;;;;;;10.63;6.03;;;16.70;99.90;;;;;;5020152;28;20494;-72
2023/08/01 03:30:54;;;;;;;5.20;4.70;;;16.70;99.90;;;;;;5015023;28;20856;-70
2023/08/01 03:33:20;;;;;;;7.33;4.77;;;16.70;99.90;;;;;;5016030;28;20415;-74
2023/08/01 03:35:46;;;;;;;8.00;4.90;;;16.70;99.90;;;;;;5015165;28;20403;-71
2023/08/01 03:38:12;;;;;;;4.93;4.27;;;16.70;99.90;;;;;;5016130;28;20900;-70
2023/08/01 03:40:38;;;;;;;6.40;5.80;;;16.70;99.90;;;;;;5016291;28;20423;-73
2023/08/01 03:43:05;;;;;;;5.73;5.13;;;16.70;99.90;;;;;;5034854;28;20659;-70
2023/08/01 03:45:30;;;;;;;4.83;4.33;;;16.70;99.90;;;;;;5035398;28;20765;-70
2023/08/01 03:47:56;;;;;;;5.90;5.40;;;16.70;99.90;;;;;;5034392;28;20557;-70
2023/08/01 03:50:22;;;;;;;5.47;4.80;;;16.70;99.90;;;;;;5035183;28;20191;-70
2023/08/01 03:52:47;;;;;;;5.03;4.53;;;16.70;99.90;;;;;;5035653;28;20175;-70
2023/08/01 03:55:13;;;;;;;9.93;4.60;;;16.70;99.90;;;;;;5034152;28;20179;-70
2023/08/01 03:57:39;;;;;;;4.40;4.00;;;16.70;99.90;;;;;;5035467;28;20242;-70
2023/08/01 04:00:13;;;;;;;5.03;3.40;;;16.60;99.90;;;;;;5035062;28;20620;-70
2023/08/01 04:02:42;;;;;;;4.43;4.03;;;16.50;99.90;;;;;;5035810;28;20555;-70
2023/08/01 04:05:08;;;;;;;4.43;4.13;;;16.50;99.90;;;;;;5034509;28;20464;-71
2023/08/01 04:07:38;;;;;;;7.60;4.33;;;16.50;99.90;;;;;;5035481;28;20461;-70
2023/08/01 04:10:05;;;;;;;5.20;4.63;;;16.50;99.90;;;;;;5034672;28;20778;-70
2023/08/01 04:12:33;;;;;;;5.80;5.03;;;16.50;99.90;;;;;;5035553;28;20782;-70
2023/08/01 04:14:59;;;;;;;6.70;5.73;;;16.50;99.90;;;;;;5035061;28;20497;-70
2023/08/01 04:17:25;;;;;;;6.83;5.07;;;16.40;99.90;;;;;;5034045;28;20509;-70
2023/08/01 04:19:51;;;;;;;14.63;6.03;;;16.50;99.90;;;;;;5035388;28;20894;-71
2023/08/01 04:22:17;;;;;;;7.90;5.10;;;16.40;99.90;;;;;;5035547;28;20671;-70
2023/08/01 04:24:42;;;;;;;9.13;7.13;;;16.40;99.90;;;;;;5033965;28;20183;-70
2023/08/01 04:27:08;;;;;;;8.13;6.87;;;16.40;99.90;;;;;;5033395;28;20203;-71
2023/08/01 04:29:34;;;;;;;7.73;5.63;;;16.40;99.90;;;;;;5034545;28;20167;-71
2023/08/01 04:32:00;;;;;;;6.93;5.90;;;16.40;99.90;;;;;;5035265;28;20171;-71
2023/08/01 04:34:26;;;;;;;7.93;6.60;;;16.40;99.90;;;;;;5033467;28;20418;-71
2023/08/01 04:36:51;;;;;;;7.03;6.43;;;16.40;99.90;;;;;;5032238;28;20199;-71
2023/08/01 04:39:17;;;;;;;7.50;6.80;;;16.40;99.90;;;;;;5034445;28;20229;-71
2023/08/01 04:41:43;;;;;;;7.83;7.03;;;16.40;99.90;;;;;;5034999;28;20222;-70
2023/08/01 04:44:08;;;;;;;7.17;6.47;;;16.50;99.90;;;;;;5034762;28;20171;-70
2023/08/01 04:46:34;;;;;;;9.53;6.60;;;16.40;99.90;;;;;;5033979;28;20277;-70
2023/08/01 04:49:00;;;;;;;8.60;6.93;;;16.50;99.90;;;;;;5034327;28;20159;-72
2023/08/01 04:51:26;;;;;;;7.77;7.00;;;16.50;99.90;;;;;;5031389;28;20195;-71
2023/08/01 04:53:52;;;;;;;7.93;7.13;;;16.40;99.90;;;;;;5033990;28;20172;-70
2023/08/01 04:56:17;;;;;;;8.73;7.13;;;16.40;99.90;;;;;;5034089;28;20168;-71
2023/08/01 04:58:43;;;;;;;7.93;6.80;;;16.50;99.90;;;;;;5034689;28;20430;-70
2023/08/01 05:01:09;;;;;;;6.53;5.93;;;16.50;99.90;;;;;;5034551;28;20171;-71
2023/08/01 05:03:35;;;;;;;7.27;6.60;;;16.40;99.90;;;;;;5022321;28;20259;-71
2023/08/01 05:06:00;;;;;;;7.20;6.50;;;16.40;99.90;;;;;;5032477;28;20183;-71
2023/08/01 05:08:26;;;;;;;4.50;4.10;;;16.40;99.90;;;;;;5033672;28;20195;-71
2023/08/01 05:10:52;;;;;;;15.10;4.80;;;16.30;99.90;;;;;;5033024;28;20632;-70
2023/08/01 05:13:18;;;;;;;2.87;2.67;;;16.30;99.90;;;;;;5032332;28;20176;-71
2023/08/01 05:15:47;;;;;;;2.13;1.97;;;16.20;99.90;;;;;;5032551;28;20175;-71
2023/08/01 05:18:14;;;;;;;1.97;1.87;;;16.10;99.90;;;;;;5033352;28;20457;-70
2023/08/01 05:20:40;;;;;;;3.53;2.10;;;16.10;99.90;;;;;;5034155;28;20406;-70
2023/08/01 05:23:05;;;;;;;2.20;1.70;;;16.10;99.90;;;;;;5034186;28;20395;-71
2023/08/01 05:25:31;;;;;;;1.67;1.57;;;16.10;99.90;;;;;;5033266;28;20179;-71
2023/08/01 05:27:57;;;;;;;3.20;2.50;;;16.10;99.90;;;;;;5033170;28;20282;-72
2023/08/01 05:30:23;;;;;;;2.10;2.00;;;16.10;99.90;;;;;;5034028;28;20163;-72
2023/08/01 05:32:49;;;;;;;2.50;2.30;;;16.20;99.90;;;;;;5032260;28;20625;-72
2023/08/01 05:35:15;;;;;;;3.10;2.30;;;16.20;99.90;;;;;;5033182;28;20407;-72
2023/08/01 05:37:41;;;;;;;3.40;3.07;;;16.20;99.90;;;;;;5033757;28;20195;-69
2023/08/01 05:40:07;;;;;;;5.17;3.53;;;16.30;99.90;;;;;;5033549;28;20433;-69
2023/08/01 05:42:33;;;;;;;2.57;2.33;;;16.30;99.90;;;;;;5034199;28;20532;-69
2023/08/01 05:44:59;;;;;;;2.57;2.30;;;16.30;99.90;;;;;;5032981;28;20402;-69
2023/08/01 05:47:24;;;;;;;3.90;3.60;;;16.30;99.90;;;;;;5032192;28;20207;-68
2023/08/01 05:49:50;;;;;;;3.13;2.87;;;16.30;99.90;;;;;;5030875;28;20620;-70
2023/08/01 05:52:16;;;;;;;4.50;2.73;;;16.30;99.90;;;;;;5042020;28;20175;-71
2023/08/01 05:54:41;;;;;;;3.00;2.47;;;16.30;99.90;;;;;;5030093;28;20263;-71
2023/08/01 05:57:08;;;;;;;2.37;2.17;;;16.30;99.90;;;;;;5012940;28;20249;-71
2023/08/01 05:59:34;;;;;;;2.30;2.10;;;16.30;99.90;;;;;;5013636;28;20183;-71
2023/08/01 06:01:59;;;;;;;1.90;1.80;;;16.30;99.90;;;;;;5013687;28;20419;-71
2023/08/01 06:04:25;;;;;;;2.20;1.23;;;16.20;99.90;;;;;;5012636;28;20419;-71
2023/08/01 06:06:51;;;;;;;1.70;1.43;;;16.10;99.90;;;;;;5012299;28;20231;-71
2023/08/01 06:09:17;;;;;;;2.03;1.43;;;16.10;99.90;;;;;;5012209;28;20571;-72
2023/08/01 06:11:42;;;;;;;1.60;1.50;;;16.10;99.90;;;;;;5013103;28;20164;-73
2023/08/01 06:14:09;;;;;;;1.23;1.07;;;16.00;99.90;;;;;;5013664;28;20195;-73
2023/08/01 06:16:35;;;;;;;1.27;1.17;;;16.00;99.90;;;;;;5028215;28;20233;-73
2023/08/01 06:19:01;;;;;;;1.10;0.93;;;16.00;99.90;;;;;;5030826;28;20865;-72
2023/08/01 06:21:27;;;;;;;2.60;1.10;;;16.00;99.90;;;;;;5033472;28;20697;-72
2023/08/01 06:23:52;;;;;;;1.70;1.30;;;15.90;99.90;;;;;;5032663;28;20192;-73
2023/08/01 06:26:18;;;;;;;5.63;1.30;;;15.90;99.90;;;;;;5032265;28;20183;-72
2023/08/01 06:28:44;;;;;;;1.37;1.27;;;15.90;99.90;;;;;;5031971;28;20187;-73
2023/08/01 06:31:10;;;;;;;1.10;0.90;;;16.00;99.90;;;;;;5032721;28;20175;-73
2023/08/01 06:33:35;;;;;;;2.50;1.37;;;16.00;99.90;;;;;;5033367;28;20160;-71
2023/08/01 06:36:01;;;;;;;2.00;1.10;;;16.00;99.90;;;;;;5031033;28;20174;-72
2023/08/01 06:38:27;;;;;;;1.50;1.30;;;16.00;99.90;;;;;;5032873;28;20770;-74
2023/08/01 06:40:53;;;;;;;4.63;1.37;;;16.00;99.90;;;;;;5033187;28;20218;-72
2023/08/01 06:43:18;;;;;;;2.57;1.40;;;15.90;99.90;;;;;;5032417;28;20521;-74
2023/08/01 06:45:44;;;;;;;2.83;0.83;;;15.90;99.90;;;;;;5031127;28;20178;-74
2023/08/01 06:48:10;;;;;;;2.77;1.10;;;15.80;99.90;;;;;;5032703;28;20692;-73
2023/08/01 06:50:35;;;;;;;1.67;1.10;;;15.80;99.90;;;;;;5034959;28;20650;-72
2023/08/01 06:53:01;;;;;;;1.53;0.97;;;15.90;99.90;;;;;;5036409;28;20184;-72
2023/08/01 06:55:27;;;;;;;1.10;1.00;;;15.90;99.90;;;;;;5036147;28;20498;-72
2023/08/01 06:57:53;;;;;;;1.00;0.90;;;15.90;99.90;;;;;;5029596;28;20191;-73
2023/08/01 07:00:18;;;;;;;1.30;1.20;;;15.80;99.90;;;;;;5017079;28;20892;-72
2023/08/01 07:02:44;;;;;;;5.20;1.10;;;15.80;99.90;;;;;;5016465;28;20577;-73
2023/08/01 07:05:10;;;;;;;1.20;1.10;;;15.80;99.90;;;;;;5014766;28;20223;-74
2023/08/01 07:07:36;;;;;;;1.40;1.30;;;15.90;99.90;;;;;;5016022;28;20569;-71
2023/08/01 07:10:01;;;;;;;1.30;1.00;;;15.90;99.90;;;;;;5017109;28;20558;-71
2023/08/01 07:12:27;;;;;;;3.63;1.30;;;15.80;99.90;;;;;;5030265;28;20176;-73
2023/08/01 07:14:53;;;;;;;1.40;1.27;;;15.80;99.90;;;;;;5034740;28;20183;-73
2023/08/01 07:17:18;;;;;;;3.73;1.20;;;15.90;99.90;;;;;;5035546;28;20194;-72
2023/08/01 07:19:44;;;;;;;3.73;1.10;;;16.00;99.90;;;;;;5034436;28;20211;-71
2023/08/01 07:22:10;;;;;;;1.80;1.40;;;16.00;99.90;;;;;;5036516;28;20579;-72
2023/08/01 07:24:36;;;;;;;2.03;1.07;;;16.00;99.90;;;;;;5035570;28;20221;-72
2023/08/01 07:27:01;;;;;;;1.40;1.30;;;16.00;99.90;;;;;;5035219;28;20273;-72
2023/08/01 07:29:27;;;;;;;1.40;1.30;;;16.00;99.90;;;;;;5035397;28;20168;-72
2023/08/01 07:31:53;;;;;;;1.20;1.10;;;16.00;99.90;;;;;;5035351;28;20504;-73
2023/08/01 07:34:18;;;;;;;2.33;1.10;;;16.00;99.90;;;;;;5035389;28;20273;-72
2023/08/01 07:36:48;;;;;;;1.40;1.30;;;16.10;99.90;;;;;;5034356;28;20195;-73
2023/08/01 07:39:14;;;;;;;1.60;1.30;;;16.10;99.90;;;;;;5034836;28;20202;-73
2023/08/01 07:41:39;;;;;;;1.30;1.00;;;16.10;99.90;;;;;;5036080;28;20890;-73
2023/08/01 07:44:05;;;;;;;1.57;1.47;;;16.10;99.90;;;;;;5035295;28;20179;-72
2023/08/01 07:46:32;;;;;;;1.90;1.80;;;16.10;99.90;;;;;;5034953;28;20187;-73
2023/08/01 07:48:59;;;;;;;1.60;1.50;;;16.20;99.90;;;;;;5035641;28;20250;-72
2023/08/01 07:51:25;;;;;;;4.17;1.93;;;16.20;99.90;;;;;;5035724;28;20426;-72
2023/08/01 07:53:53;;;;;;;1.53;1.33;;;16.20;99.90;;;;;;5033627;28;20426;-72
2023/08/01 07:56:19;;;;;;;2.57;2.10;;;16.30;99.90;;;;;;5033563;28;20407;-72
2023/08/01 07:58:45;;;;;;;4.13;2.33;;;16.50;99.90;;;;;;5035742;28;20499;-73
2023/08/01 08:01:11;;;;;;;2.50;2.20;;;16.70;99.90;;;;;;5033881;28;20426;-71
2023/08/01 08:03:36;;;;;;;2.93;2.30;;;16.90;99.90;;;;;;5035671;28;20505;-71
2023/08/01 08:06:03;;;;;;;2.50;2.30;;;16.90;99.90;;;;;;5034032;28;20649;-71
2023/08/01 08:08:29;;;;;;;3.30;3.00;;;17.10;99.90;;;;;;5035546;28;20199;-72
2023/08/01 08:10:55;;;;;;;3.07;2.77;;;17.10;99.90;;;;;;5034227;28;20929;-72
2023/08/01 08:13:21;;;;;;;5.87;2.80;;;17.20;99.90;;;;;;5034856;28;20408;-71
2023/08/01 08:15:47;;;;;;;4.27;2.43;;;17.20;99.90;;;;;;5034490;28;20402;-72
2023/08/01 08:18:13;;;;;;;3.13;2.93;;;17.10;99.90;;;;;;5033961;28;20660;-72
2023/08/01 08:20:44;;;;;;;2.77;2.57;;;17.10;99.90;;;;;;5034124;28;20487;-72
2023/08/01 08:23:10;;;;;;;6.50;3.03;;;17.10;99.90;;;;;;5035334;28;20650;-72
2023/08/01 08:25:36;;;;;;;9.07;3.50;;;17.10;99.90;;;;;;5034277;28;20410;-71
2023/08/01 08:28:03;;;;;;;3.73;3.30;;;17.10;99.90;;;;;;5035441;28;20457;-72
2023/08/01 08:30:28;;;;;;;2.90;2.70;;;17.10;99.90;;;;;;5034476;28;20414;-72
2023/08/01 08:32:54;;;;;;;4.93;2.93;;;17.10;99.90;;;;;;5033885;28;20429;-72
2023/08/01 08:35:20;;;;;;;3.00;2.50;;;17.10;99.90;;;;;;5032820;28;20175;-71
2023/08/01 08:37:45;;;;;;;3.67;2.80;;;17.00;99.90;;;;;;5033372;28;20579;-71
2023/08/01 08:40:13;;;;;;;2.80;2.13;;;17.00;99.90;;;;;;5034915;28;20251;-71
2023/08/01 08:42:40;;;;;;;3.10;2.10;;;17.10;99.90;;;;;;5035089;28;20163;-71
2023/08/01 08:45:06;;;;;;;2.50;2.30;;;17.30;99.90;;;;;;5033934;28;20410;-71
2023/08/01 08:47:36;;;;;;;5.20;2.87;;;17.40;99.90;;;;;;5032581;28;20523;-74
2023/08/01 08:50:02;;;;;;;2.07;1.97;;;17.50;99.90;;;;;;5032330;28;20456;-71
2023/08/01 08:52:29;;;;;;;9.60;2.40;;;17.60;99.90;;;;;;5034765;28;20501;-71
2023/08/01 08:54:56;;;;;;;8.87;2.00;;;17.70;99.90;;;;;;5027627;28;20179;-71
2023/08/01 08:57:23;;;;;;;2.23;2.03;;;18.00;99.90;;;;;;5014064;28;20982;-71
2023/08/01 08:59:49;;;;;;;3.17;2.07;;;18.00;99.90;;;;;;5014660;28;20411;-71
2023/08/01 09:02:16;;;;;;;2.23;2.10;;;18.20;99.90;;;;;;5014822;28;20918;-71
2023/08/01 09:04:42;;;;;;;7.13;2.77;;;18.50;99.90;;;;;;5015101;28;20912;-69
2023/08/01 09:07:11;;;;;;;4.83;2.37;;;18.70;99.90;;;;;;5033330;28;20464;-70
2023/08/01 09:09:37;;;;;;;2.10;1.90;;;18.70;99.90;;;;;;5034461;28;20160;-70
2023/08/01 09:12:03;;;;;;;2.60;2.03;;;18.60;99.90;;;;;;5034068;28;20444;-70
2023/08/01 09:14:32;;;;;;;4.93;2.63;;;18.50;99.90;;;;;;5033738;28;20477;-69
2023/08/01 09:17:06;;;;;;;4.40;2.20;;;18.50;98.50;;;;;;5033376;28;20480;-70
2023/08/01 09:19:32;;;;;;;4.60;2.20;;;18.60;87.30;;;;;;5033461;28;20440;-70
2023/08/01 09:21:58;;;;;;;2.93;2.30;;;18.70;66.00;;;;;;5034126;28;20406;-69
2023/08/01 09:24:24;;;;;;;2.33;2.13;;;18.70;12.40;;;;;;5033662;28;20264;-70
2023/08/01 09:26:50;;;;;;;4.13;2.50;;;18.80;1.00;;;;;;5033039;28;20485;-70
2023/08/01 09:29:20;;;;;;;4.77;2.13;;;18.90;1.00;;;;;;5034008;28;20644;-70
2023/08/01 09:31:46;;;;;;;4.00;1.80;;;18.80;1.00;;;;;;5033619;28;20189;-70
2023/08/01 09:34:20;;;;;;;2.80;2.23;;;18.80;1.00;;;;;;5033281;28;20426;-71
2023/08/01 09:36:46;;;;;;;2.87;2.00;;;18.90;1.00;;;;;;5033000;28;20438;-71
2023/08/01 09:39:17;;;;;;;4.47;2.10;;;19.00;1.00;;;;;;5032675;28;20430;-71
2023/08/01 09:41:44;;;;;;;3.00;1.97;;;19.30;1.00;;;;;;5033455;28;20195;-71
2023/08/01 09:44:16;;;;;;;3.07;2.30;;;19.40;1.00;;;;;;5033970;28;20432;-70
2023/08/01 09:46:43;;;;;;;3.87;2.63;;;19.40;1.00;;;;;;5032658;28;20541;-69
2023/08/01 09:49:09;;;;;;;6.30;2.10;;;19.20;1.00;;;;;;5018225;28;20426;-71
2023/08/01 09:51:49;;;;;;;2.33;1.90;;;18.90;1.00;;;;;;5012616;28;20831;-71
2023/08/01 09:54:16;;;;;;;3.00;1.70;;;18.50;1.00;;;;;;5014084;28;20391;-71
2023/08/01 09:56:48;;;;;;;2.10;1.60;;;18.30;1.00;;;;;;5012826;28;20518;-71
2023/08/01 09:59:20;;;;;;;2.07;1.83;;;18.20;1.00;;;;;;5013655;28;20414;-71
2023/08/01 10:01:51;;;;;;;2.33;1.50;;;18.10;1.00;;;;;;5013336;28;20445;-72
2023/08/01 10:04:29;;;;;;;2.40;1.70;;;17.90;1.00;;;;;;5014159;28;20407;-71
2023/08/01 10:07:08;;;;;;;4.90;1.93;;;17.80;1.00;;;;;;5012833;28;20489;-71
2023/08/01 10:09:37;;;;;;;4.13;1.97;;;17.60;1.00;;;;;;5013188;28;20434;-72
2023/08/01 10:12:05;;;;;;;5.43;2.33;;;17.60;1.00;;;;;;5018071;28;20398;-71
2023/08/01 10:14:32;;;;;;;2.63;2.43;;;17.70;1.00;;;;;;5032521;28;20434;-71
2023/08/01 10:16:58;;;;;;;2.40;2.03;;;18.10;1.00;;;;;;5024322;28;20462;-71
2023/08/01 10:19:25;;;;;;;2.33;2.13;;;18.20;1.00;;;;;;5013329;28;20923;-70
2023/08/01 10:21:51;;;;;;;3.80;2.10;;;18.10;1.00;;;;;;5013777;28;20192;-71
2023/08/01 10:24:18;;;;;;;3.20;2.07;;;18.00;1.00;;;;;;5012729;28;20407;-72
2023/08/01 10:26:46;;;;;;;2.43;2.23;;;17.90;1.00;;;;;;5010916;28;20458;-71
2023/08/01 10:29:12;;;;;;;2.83;2.33;;;17.90;1.00;;;;;;5013723;28;20399;-70
2023/08/01 10:31:38;;;;;;;3.57;2.10;;;17.80;1.00;;;;;;5013464;28;20435;-72
2023/08/01 10:34:12;;;;;;;2.80;2.13;;;17.80;1.00;;;;;;5013254;28;20168;-70
2023/08/01 10:36:38;;;;;;;5.17;2.27;;;17.70;1.00;;;;;;5012062;28;20167;-70
2023/08/01 10:39:05;;;;;;;5.90;2.20;;;17.60;1.00;;;;;;5013463;28;20402;-70
2023/08/01 10:41:35;;;;;;;2.33;2.13;;;17.60;1.00;;;;;;5013164;28;20915;-70
2023/08/01 10:44:19;;;;;;;6.30;2.50;;;17.70;1.00;;;;;;5013238;28;20407;-71
2023/08/01 10:46:55;;;;;;;2.70;1.63;;;17.70;1.00;;;;;;5032130;28;20450;-71
2023/08/01 10:49:33;;;;;;;2.30;1.73;;;17.80;1.00;;;;;;5033280;28;20413;-70
2023/08/01 10:51:58;;;;;;;3.33;2.00;;;18.00;1.00;;;;;;5032906;28;20875;-71
2023/08/01 10:54:25;;;;;;;4.13;2.73;;;18.30;1.00;;;;;;5032509;28;20421;-69
2023/08/01 10:56:59;;;;;;;4.13;1.97;;;18.60;1.00;;;;;;5023497;28;20687;-70
2023/08/01 10:59:26;;;;;;;1.97;1.80;;;19.00;1.00;;;;;;5018931;28;20429;-70
2023/08/01 11:01:54;;;;;;;5.20;2.53;;;19.50;1.00;;;;;;5032511;28;20402;-70
2023/08/01 11:04:21;;;;;;;3.30;1.77;;;20.00;1.00;;;;;;5032917;28;20545;-71
2023/08/01 11:06:49;;;;;;;2.60;1.90;;;20.50;1.00;;;;;;5031931;28;20532;-69
2023/08/01 11:09:26;;;;;;;6.50;1.93;;;20.70;99.90;;;;;;5033142;28;20476;-68
2023/08/01 11:12:00;;;;;;;5.93;1.90;;;20.60;99.90;;;;;;5032493;28;20745;-70
2023/08/01 11:14:28;;;;;;;3.90;2.00;;;20.30;99.90;;;;;;5023786;28;20438;-71
2023/08/01 11:16:57;;;;;;;2.83;2.00;;;20.30;99.90;;;;;;5012677;28;20450;-69
2023/08/01 11:19:29;;;;;;;3.93;1.87;;;20.60;99.90;;;;;;5013092;28;20399;-69
2023/08/01 11:21:56;;;;;;;3.30;2.13;;;20.80;99.90;;;;;;5012770;28;20407;-70
2023/08/01 11:24:24;;;;;;;2.53;1.63;;;20.80;99.90;;;;;;5012890;28;20399;-69
2023/08/01 11:26:52;;;;;;;3.50;1.80;;;21.10;99.90;;;;;;5011873;28;20465;-70
2023/08/01 11:29:19;;;;;;;1.70;1.47;;;21.80;99.90;;;;;;5012370;28;20919;-70
2023/08/01 11:32:00;;;;;;;9.37;1.60;;;22.40;96.60;;;;;;5012998;28;20490;-69
2023/08/01 11:34:27;;;;;;;8.30;2.93;;;22.30;63.90;;;;;;5012756;28;20403;-69
2023/08/01 11:36:53;;;;;;;3.80;2.27;;;22.00;56.90;;;;;;5014344;28;20430;-70
2023/08/01 11:39:22;;;;;;;2.43;2.17;;;22.10;68.10;;;;;;5015877;28;20426;-70
2023/08/01 11:41:47;;;;;;;1.80;1.63;;;22.20;68.30;;;;;;5016426;28;20427;-69
2023/08/01 11:44:13;;;;;;;2.00;1.20;;;22.00;21.10;;;;;;5026000;28;20422;-69
2023/08/01 11:46:41;;;;;;;1.80;1.50;;;21.30;1.00;;;;;;5034370;28;20282;-71
2023/08/01 11:49:07;;;;;;;7.80;2.00;;;20.70;1.00;;;;;;5034866;28;20422;-71
2023/08/01 11:51:40;;;;;;;9.70;1.80;;;20.00;1.00;;;;;;5034798;28;20409;-70
2023/08/01 11:54:07;;;;;;;1.90;1.50;;;19.40;8.20;;;;;;5035851;28;20928;-70
2023/08/01 11:56:33;;;;;;;1.73;1.60;;;18.80;21.90;;;;;;5034485;28;20405;-72
2023/08/01 11:58:59;;;;;;;4.00;1.60;;;18.60;63.40;;;;;;5035719;28;20448;-70
2023/08/01 12:01:25;;;;;;;2.07;1.40;;;18.30;59.20;;;;;;5036019;28;20410;-71
2023/08/01 12:03:53;;;;;;;1.50;1.17;;;18.20;92.50;;;;;;5034058;28;20426;-71
2023/08/01 12:06:21;;;;;;;3.63;1.27;;;18.60;99.90;;;;;;5034686;28;20410;-72
2023/08/01 12:08:48;;;;;;;1.83;1.10;;;19.60;99.90;;;;;;5035418;28;20407;-70
2023/08/01 12:11:32;;;;;;;3.50;1.27;;;20.70;99.90;;;;;;5035931;28;20405;-71
2023/08/01 12:14:03;;;;;;;2.20;0.93;;;21.60;99.90;;;;;;5035077;28;20421;-70
2023/08/01 12:16:29;;;;;;;3.03;1.50;;;22.30;82.20;;;;;;5028158;28;20509;-70
2023/08/01 12:18:56;;;;;;;1.50;1.13;;;22.50;51.90;;;;;;5015454;28;20448;-70
2023/08/01 12:21:22;;;;;;;3.27;1.03;;;22.00;15.20;;;;;;5015382;28;20435;-71
2023/08/01 12:23:47;;;;;;;3.20;1.70;;;21.30;8.50;;;;;;5015677;28;20423;-68
2023/08/01 12:26:13;;;;;;;4.53;1.60;;;20.50;1.00;;;;;;5014777;28;20165;-73
2023/08/01 12:28:39;;;;;;;2.03;1.30;;;19.50;1.00;;;;;;5014940;28;20285;-74
2023/08/01 12:31:05;;;;;;;2.90;1.10;;;18.90;7.50;;;;;;5020082;28;20206;-73
2023/08/01 12:33:32;;;;;;;5.43;1.30;;;18.30;26.20;;;;;;5035145;28;20203;-72
2023/08/01 12:35:58;;;;;;;5.63;1.53;;;17.80;66.20;;;;;;5034489;28;20156;-72
2023/08/01 12:38:24;;;;;;;1.80;1.43;;;17.50;94.80;;;;;;5035015;28;20428;-73
2023/08/01 12:40:49;;;;;;;2.10;1.03;;;17.40;99.90;;;;;;5034901;28;20493;-73
2023/08/01 12:43:16;;;;;;;3.10;1.50;;;17.30;99.90;;;;;;5034951;28;20172;-72
2023/08/01 12:45:42;;;;;;;2.67;1.20;;;17.00;99.90;;;;;;5017844;28;20506;-73